createdAt,value
2023-06-10T00:00:04.973Z,21.76
2023-06-10T00:01:04.949Z,21.76
2023-06-10T00:02:04.962Z,21.74
2023-06-10T00:03:05.130Z,21.74
2023-06-10T00:04:05.075Z,21.71
2023-06-10T00:05:04.911Z,21.67
2023-06-10T00:06:04.903Z,21.67
2023-06-10T00:07:04.895Z,21.64
2023-06-10T00:08:04.882Z,21.61
2023-06-10T00:09:04.898Z,21.63
2023-06-10T00:10:04.869Z,21.61
2023-06-10T00:11:04.861Z,21.60
2023-06-10T00:12:04.837Z,21.57
2023-06-10T00:13:04.834Z,21.57
2023-06-10T00:14:04.845Z,21.54
2023-06-10T00:15:04.789Z,21.54
2023-06-10T00:16:04.826Z,21.54
2023-06-10T00:17:04.788Z,21.54
2023-06-10T00:18:04.888Z,21.54
2023-06-10T00:19:04.783Z,21.51
2023-06-10T00:20:04.744Z,21.51
2023-06-10T00:21:04.720Z,21.48
2023-06-10T00:22:04.722Z,21.48
2023-06-10T00:23:04.714Z,21.42
2023-06-10T00:24:04.733Z,21.42
2023-06-10T00:25:04.671Z,21.42
2023-06-10T00:26:04.678Z,21.42
2023-06-10T00:27:04.657Z,21.41
2023-06-10T00:28:04.684Z,21.39
2023-06-10T00:29:04.633Z,21.38
2023-06-10T00:30:04.624Z,21.36
2023-06-10T00:31:04.628Z,21.35
2023-06-10T00:32:04.686Z,21.34
2023-06-10T00:33:04.712Z,21.32
2023-06-10T00:34:04.580Z,21.29
2023-06-10T00:35:04.581Z,21.27
2023-06-10T00:36:04.561Z,21.24
2023-06-10T00:37:04.550Z,21.23
2023-06-10T00:38:04.564Z,21.20
2023-06-10T00:39:04.531Z,21.19
2023-06-10T00:40:04.520Z,21.17
2023-06-10T00:41:04.482Z,21.16
2023-06-10T00:42:04.505Z,21.16
2023-06-10T00:43:04.474Z,21.16
2023-06-10T00:44:04.466Z,21.14
2023-06-10T00:45:04.447Z,21.14
2023-06-10T00:46:04.483Z,21.14
2023-06-10T00:47:04.580Z,21.14
2023-06-10T00:48:04.536Z,21.14
2023-06-10T00:49:04.394Z,21.14
2023-06-10T00:50:04.406Z,21.14
2023-06-10T00:51:04.395Z,21.13
2023-06-10T00:52:04.381Z,21.13
2023-06-10T00:53:04.345Z,21.11
2023-06-10T00:54:04.360Z,21.13
2023-06-10T00:55:04.321Z,21.13
2023-06-10T00:56:04.352Z,21.13
2023-06-10T00:57:04.303Z,21.11
2023-06-10T00:58:04.293Z,21.09
2023-06-10T00:59:04.272Z,21.09
2023-06-10T01:00:04.272Z,21.06
2023-06-10T01:01:04.313Z,21.08
2023-06-10T01:02:04.283Z,21.08
2023-06-10T01:03:04.370Z,21.06
2023-06-10T01:04:04.267Z,21.05
2023-06-10T01:05:04.232Z,21.04
2023-06-10T01:06:04.198Z,21.02
2023-06-10T01:07:04.187Z,21.01
2023-06-10T01:08:04.188Z,21.01
2023-06-10T01:09:04.164Z,20.98
2023-06-10T01:10:04.179Z,20.96
2023-06-10T01:11:04.137Z,20.95
2023-06-10T01:12:04.133Z,20.93
2023-06-10T01:13:04.264Z,20.91
2023-06-10T01:14:04.150Z,20.90
2023-06-10T01:15:04.167Z,20.90
2023-06-10T01:16:04.091Z,20.89
2023-06-10T01:17:04.156Z,20.86
2023-06-10T01:18:04.168Z,20.86
2023-06-10T01:19:04.062Z,20.86
2023-06-10T01:20:04.070Z,20.84
2023-06-10T01:21:04.011Z,20.83
2023-06-10T01:22:04.017Z,20.79
2023-06-10T01:23:04.152Z,20.76
2023-06-10T01:24:03.998Z,20.71
2023-06-10T01:25:03.970Z,20.65
2023-06-10T01:26:03.996Z,20.58
2023-06-10T01:27:03.983Z,20.51
2023-06-10T01:28:03.941Z,20.49
2023-06-10T01:29:03.929Z,20.47
2023-06-10T01:30:03.924Z,20.46
2023-06-10T01:31:04.076Z,20.47
2023-06-10T01:32:03.913Z,20.46
2023-06-10T01:33:04.017Z,20.47
2023-06-10T01:34:03.916Z,20.49
2023-06-10T01:35:03.898Z,20.49
2023-06-10T01:36:03.873Z,20.50
2023-06-10T01:37:03.869Z,20.47
2023-06-10T01:38:03.889Z,20.43
2023-06-10T01:39:03.825Z,20.43
2023-06-10T01:40:03.889Z,20.43
2023-06-10T01:41:03.799Z,20.42
2023-06-10T01:42:03.768Z,20.43
2023-06-10T01:43:03.781Z,20.42
2023-06-10T01:44:03.813Z,20.42
2023-06-10T01:45:03.748Z,20.42
2023-06-10T01:46:03.865Z,20.42
2023-06-10T01:47:03.799Z,20.39
2023-06-10T01:48:03.771Z,20.41
2023-06-10T01:49:03.727Z,20.39
2023-06-10T01:50:03.683Z,20.38
2023-06-10T01:51:03.749Z,20.38
2023-06-10T01:52:03.667Z,20.35
2023-06-10T01:53:03.660Z,20.35
2023-06-10T01:54:03.648Z,20.35
2023-06-10T01:55:03.676Z,20.33
2023-06-10T01:56:03.609Z,20.33
2023-06-10T01:57:03.619Z,20.33
2023-06-10T01:58:03.586Z,20.31
2023-06-10T01:59:03.590Z,20.31
2023-06-10T02:00:03.570Z,20.30
2023-06-10T02:01:03.697Z,20.27
2023-06-10T02:02:03.563Z,20.27
2023-06-10T02:03:03.653Z,20.27
2023-06-10T02:04:03.555Z,20.23
2023-06-10T02:05:03.512Z,20.23
2023-06-10T02:06:03.491Z,20.20
2023-06-10T02:07:03.508Z,20.20
2023-06-10T02:08:03.549Z,20.16
2023-06-10T02:09:03.466Z,20.15
2023-06-10T02:10:03.444Z,20.12
2023-06-10T02:11:03.445Z,20.12
2023-06-10T02:12:03.419Z,20.10
2023-06-10T02:13:03.432Z,20.09
2023-06-10T02:14:03.442Z,20.06
2023-06-10T02:15:03.404Z,20.03
2023-06-10T02:16:03.387Z,20.02
2023-06-10T02:17:03.378Z,20.02
2023-06-10T02:18:03.408Z,20.00
2023-06-10T02:19:05.019Z,20.00
2023-06-10T02:20:03.323Z,19.98
2023-06-10T02:21:03.322Z,19.98
2023-06-10T02:22:03.304Z,19.95
2023-06-10T02:23:03.301Z,19.94
2023-06-10T02:24:03.348Z,19.94
2023-06-10T02:25:03.280Z,19.93
2023-06-10T02:26:03.257Z,19.88
2023-06-10T02:27:03.262Z,19.90
2023-06-10T02:28:03.262Z,19.87
2023-06-10T02:29:03.236Z,19.86
2023-06-10T02:30:03.212Z,19.86
2023-06-10T02:31:03.218Z,19.83
2023-06-10T02:32:03.221Z,19.80
2023-06-10T02:33:03.256Z,19.79
2023-06-10T02:34:03.171Z,19.78
2023-06-10T02:35:04.942Z,19.76
2023-06-10T02:36:03.158Z,19.75
2023-06-10T02:37:03.152Z,19.75
2023-06-10T02:38:03.130Z,19.75
2023-06-10T02:39:03.120Z,19.73
2023-06-10T02:40:03.117Z,19.72
2023-06-10T02:41:03.145Z,19.70
2023-06-10T02:42:03.089Z,19.69
2023-06-10T02:43:03.068Z,19.68
2023-06-10T02:44:03.049Z,19.68
2023-06-10T02:45:03.051Z,19.66
2023-06-10T02:46:03.204Z,19.65
2023-06-10T02:47:03.062Z,19.65
2023-06-10T02:48:03.088Z,19.65
2023-06-10T02:49:03.007Z,19.61
2023-06-10T02:50:03.039Z,19.60
2023-06-10T02:51:02.999Z,19.60
2023-06-10T02:52:02.962Z,19.57
2023-06-10T02:53:02.994Z,19.57
2023-06-10T02:54:02.935Z,19.55
2023-06-10T02:55:02.987Z,19.54
2023-06-10T02:56:02.929Z,19.54
2023-06-10T02:57:02.916Z,19.53
2023-06-10T02:58:02.907Z,19.48
2023-06-10T02:59:02.933Z,19.47
2023-06-10T03:00:02.878Z,19.46
2023-06-10T03:01:02.888Z,19.43
2023-06-10T03:02:02.928Z,19.42
2023-06-10T03:03:02.873Z,19.40
2023-06-10T03:04:02.906Z,19.38
2023-06-10T03:05:02.823Z,19.36
2023-06-10T03:06:02.807Z,19.35
2023-06-10T03:07:02.812Z,19.31
2023-06-10T03:08:02.786Z,19.24
2023-06-10T03:09:02.791Z,19.18
2023-06-10T03:10:04.442Z,19.13
2023-06-10T03:11:02.756Z,19.10
2023-06-10T03:12:02.749Z,19.10
2023-06-10T03:13:02.756Z,19.08
2023-06-10T03:14:02.716Z,19.10
2023-06-10T03:15:02.738Z,19.10
2023-06-10T03:16:02.729Z,19.11
2023-06-10T03:17:02.695Z,19.11
2023-06-10T03:18:02.714Z,19.10
2023-06-10T03:19:02.741Z,19.11
2023-06-10T03:20:02.662Z,19.13
2023-06-10T03:21:02.644Z,19.13
2023-06-10T03:22:02.635Z,19.14
2023-06-10T03:23:02.637Z,19.13
2023-06-10T03:24:02.672Z,19.11
2023-06-10T03:25:02.601Z,19.11
2023-06-10T03:26:02.575Z,19.11
2023-06-10T03:27:02.572Z,19.10
2023-06-10T03:28:02.712Z,19.05
2023-06-10T03:29:02.566Z,19.02
2023-06-10T03:30:02.559Z,18.99
2023-06-10T03:31:02.573Z,18.98
2023-06-10T03:32:02.507Z,18.97
2023-06-10T03:33:02.607Z,18.98
2023-06-10T03:34:02.492Z,18.97
2023-06-10T03:35:02.506Z,18.94
2023-06-10T03:36:02.465Z,18.92
2023-06-10T03:37:02.462Z,18.92
2023-06-10T03:38:02.544Z,18.92
2023-06-10T03:39:02.450Z,18.94
2023-06-10T03:40:02.430Z,18.92
2023-06-10T03:41:02.427Z,18.92
2023-06-10T03:42:02.404Z,18.91
2023-06-10T03:43:02.408Z,18.90
2023-06-10T03:44:02.365Z,18.87
2023-06-10T03:45:02.362Z,18.86
2023-06-10T03:46:02.395Z,18.84
2023-06-10T03:47:02.339Z,18.84
2023-06-10T03:48:02.478Z,18.83
2023-06-10T03:49:02.323Z,18.82
2023-06-10T03:50:02.297Z,18.82
2023-06-10T03:51:02.305Z,18.80
2023-06-10T03:52:02.326Z,18.79
2023-06-10T03:53:02.273Z,18.80
2023-06-10T03:54:02.268Z,18.80
2023-06-10T03:55:02.282Z,18.77
2023-06-10T03:56:02.234Z,18.74
2023-06-10T03:57:02.224Z,18.76
2023-06-10T03:58:02.258Z,18.76
2023-06-10T03:59:02.213Z,18.73
2023-06-10T04:00:02.227Z,18.72
2023-06-10T04:01:02.179Z,18.72
2023-06-10T04:02:02.176Z,18.72
2023-06-10T04:03:02.162Z,18.70
2023-06-10T04:04:02.147Z,18.72
2023-06-10T04:05:02.164Z,18.73
2023-06-10T04:06:02.144Z,18.74
2023-06-10T04:07:02.110Z,18.73
2023-06-10T04:08:02.109Z,18.76
2023-06-10T04:09:02.092Z,18.74
2023-06-10T04:10:02.061Z,18.73
2023-06-10T04:11:02.092Z,18.74
2023-06-10T04:12:02.045Z,18.74
2023-06-10T04:13:02.058Z,18.72
2023-06-10T04:14:02.021Z,18.73
2023-06-10T04:15:02.027Z,18.72
2023-06-10T04:16:01.991Z,18.70
2023-06-10T04:17:02.081Z,18.72
2023-06-10T04:18:02.027Z,18.72
2023-06-10T04:19:01.986Z,18.70
2023-06-10T04:20:01.942Z,18.70
2023-06-10T04:21:01.954Z,18.72
2023-06-10T04:22:01.954Z,18.72
2023-06-10T04:23:01.921Z,18.70
2023-06-10T04:24:01.945Z,18.70
2023-06-10T04:25:01.896Z,18.68
2023-06-10T04:26:01.877Z,18.68
2023-06-10T04:27:01.911Z,18.68
2023-06-10T04:28:01.848Z,18.72
2023-06-10T04:29:01.858Z,18.73
2023-06-10T04:30:01.829Z,18.73
2023-06-10T04:31:01.831Z,18.73
2023-06-10T04:32:01.903Z,18.72
2023-06-10T04:33:01.893Z,18.74
2023-06-10T04:34:01.791Z,18.73
2023-06-10T04:35:01.815Z,18.74
2023-06-10T04:36:01.776Z,18.74
2023-06-10T04:37:01.794Z,18.77
2023-06-10T04:38:01.742Z,18.77
2023-06-10T04:39:01.731Z,18.79
2023-06-10T04:40:01.743Z,18.77
2023-06-10T04:41:01.735Z,18.79
2023-06-10T04:42:01.694Z,18.77
2023-06-10T04:43:01.689Z,18.77
2023-06-10T04:44:01.663Z,18.77
2023-06-10T04:45:01.667Z,18.77
2023-06-10T04:46:01.674Z,18.76
2023-06-10T04:47:01.685Z,18.76
2023-06-10T04:48:01.651Z,18.76
2023-06-10T04:49:01.619Z,18.79
2023-06-10T04:50:01.596Z,18.79
2023-06-10T04:51:01.594Z,18.79
2023-06-10T04:52:01.650Z,18.79
2023-06-10T04:53:01.582Z,18.79
2023-06-10T04:54:01.555Z,18.80
2023-06-10T04:55:01.546Z,18.80
2023-06-10T04:56:01.564Z,18.82
2023-06-10T04:57:01.520Z,18.80
2023-06-10T04:58:01.521Z,18.80
2023-06-10T04:59:01.506Z,18.83
2023-06-10T05:00:01.484Z,18.82
2023-06-10T05:01:01.477Z,18.82
2023-06-10T05:02:01.522Z,18.82
2023-06-10T05:03:01.520Z,18.83
2023-06-10T05:04:01.491Z,18.84
2023-06-10T05:05:01.444Z,18.84
2023-06-10T05:06:01.417Z,18.84
2023-06-10T05:07:01.402Z,18.84
2023-06-10T05:08:01.395Z,18.84
2023-06-10T05:09:01.402Z,18.84
2023-06-10T05:10:01.381Z,18.86
2023-06-10T05:11:01.354Z,18.90
2023-06-10T05:12:01.351Z,18.87
2023-06-10T05:13:01.340Z,18.87
2023-06-10T05:14:01.384Z,18.91
2023-06-10T05:15:01.314Z,18.92
2023-06-10T05:16:01.378Z,18.94
2023-06-10T05:17:01.305Z,18.95
2023-06-10T05:18:01.290Z,18.95
2023-06-10T05:19:01.257Z,18.98
2023-06-10T05:20:01.306Z,19.02
2023-06-10T05:21:01.273Z,19.05
2023-06-10T05:22:01.215Z,19.06
2023-06-10T05:23:01.240Z,19.08
2023-06-10T05:24:01.241Z,19.08
2023-06-10T05:25:01.228Z,19.10
2023-06-10T05:26:01.179Z,19.11
2023-06-10T05:27:01.192Z,19.11
2023-06-10T05:28:01.162Z,19.15
2023-06-10T05:29:01.142Z,19.15
2023-06-10T05:30:01.166Z,19.18
2023-06-10T05:31:01.124Z,19.20
2023-06-10T05:32:01.122Z,19.21
2023-06-10T05:33:01.173Z,19.24
2023-06-10T05:34:08.421Z,19.28
2023-06-10T05:35:01.103Z,19.31
2023-06-10T05:36:01.062Z,19.33
2023-06-10T05:37:01.085Z,19.35
2023-06-10T05:38:03.676Z,19.36
2023-06-10T05:39:01.101Z,19.40
2023-06-10T05:40:01.034Z,19.43
2023-06-10T05:41:01.026Z,19.47
2023-06-10T05:42:00.996Z,19.51
2023-06-10T05:43:01.038Z,19.51
2023-06-10T05:44:00.971Z,19.55
2023-06-10T05:45:00.966Z,19.57
2023-06-10T05:46:00.970Z,19.60
2023-06-10T05:47:00.952Z,19.61
2023-06-10T05:48:01.022Z,19.61
2023-06-10T05:49:00.922Z,19.65
2023-06-10T05:50:00.911Z,19.66
2023-06-10T05:51:02.574Z,19.68
2023-06-10T05:52:00.888Z,19.70
2023-06-10T05:53:00.909Z,19.73
2023-06-10T05:54:00.858Z,19.75
2023-06-10T05:55:00.840Z,19.78
2023-06-10T05:56:00.862Z,19.80
2023-06-10T05:57:00.822Z,19.83
2023-06-10T05:58:00.830Z,19.83
2023-06-10T05:59:00.811Z,19.87
2023-06-10T06:00:00.812Z,19.86
2023-06-10T06:01:00.815Z,19.90
2023-06-10T06:02:00.826Z,19.90
2023-06-10T06:03:00.924Z,19.91
2023-06-10T06:04:00.746Z,19.91
2023-06-10T06:05:00.815Z,19.93
2023-06-10T06:06:00.735Z,19.95
2023-06-10T06:07:00.745Z,19.98
2023-06-10T06:08:00.716Z,19.98
2023-06-10T06:09:00.683Z,20.05
2023-06-10T06:10:00.698Z,20.05
2023-06-10T06:11:00.661Z,20.06
2023-06-10T06:12:00.667Z,20.08
2023-06-10T06:13:00.656Z,20.10
2023-06-10T06:14:00.660Z,20.13
2023-06-10T06:15:00.640Z,20.16
2023-06-10T06:16:00.654Z,20.20
2023-06-10T06:17:00.607Z,20.23
2023-06-10T06:18:00.645Z,20.25
2023-06-10T06:19:00.624Z,20.28
2023-06-10T06:20:00.574Z,20.30
2023-06-10T06:21:00.541Z,20.33
2023-06-10T06:22:00.560Z,20.35
2023-06-10T06:23:00.541Z,20.39
2023-06-10T06:24:00.637Z,20.41
2023-06-10T06:25:00.797Z,20.43
2023-06-10T06:26:00.542Z,20.46
2023-06-10T06:27:00.473Z,20.51
2023-06-10T06:28:00.479Z,20.53
2023-06-10T06:29:00.453Z,20.56
2023-06-10T06:30:00.452Z,20.58
2023-06-10T06:31:00.508Z,20.62
2023-06-10T06:32:00.465Z,20.65
2023-06-10T06:33:00.433Z,20.68
2023-06-10T06:34:00.404Z,20.71
2023-06-10T06:35:00.391Z,20.74
2023-06-10T06:36:00.380Z,20.77
2023-06-10T06:37:00.406Z,20.80
2023-06-10T06:38:00.354Z,20.83
2023-06-10T06:39:00.340Z,20.86
2023-06-10T06:40:03.949Z,20.89
2023-06-10T06:41:00.312Z,20.90
2023-06-10T06:42:00.328Z,20.95
2023-06-10T06:43:00.305Z,20.98
2023-06-10T06:44:00.292Z,21.01
2023-06-10T06:45:00.279Z,21.04
2023-06-10T06:46:00.284Z,21.05
2023-06-10T06:47:00.241Z,21.09
2023-06-10T06:48:00.334Z,21.13
2023-06-10T06:49:00.227Z,21.16
2023-06-10T06:50:00.248Z,21.19
2023-06-10T06:51:00.224Z,21.21
2023-06-10T06:52:00.193Z,21.24
2023-06-10T06:53:00.183Z,21.27
2023-06-10T06:54:00.340Z,21.29
2023-06-10T06:55:00.175Z,21.30
2023-06-10T06:56:00.204Z,21.36
2023-06-10T06:57:00.160Z,21.36
2023-06-10T06:58:00.127Z,21.39
2023-06-10T06:59:00.110Z,21.41
2023-06-10T07:00:00.111Z,21.46
2023-06-10T07:01:00.184Z,21.48
2023-06-10T07:02:00.082Z,21.50
2023-06-10T07:03:00.179Z,21.53
2023-06-10T07:04:00.166Z,21.56
2023-06-10T07:05:00.135Z,21.59
2023-06-10T07:06:00.094Z,21.60
2023-06-10T07:07:00.014Z,21.61
2023-06-10T07:08:00.005Z,21.64
2023-06-10T07:08:59.990Z,21.67
2023-06-10T07:09:59.990Z,21.71
2023-06-10T07:10:59.982Z,21.72
2023-06-10T07:11:59.966Z,21.75
2023-06-10T07:12:59.950Z,21.78
2023-06-10T07:13:59.936Z,21.79
2023-06-10T07:15:00.082Z,21.83
2023-06-10T07:15:59.948Z,21.85
2023-06-10T07:16:59.926Z,21.88
2023-06-10T07:17:59.906Z,21.92
2023-06-10T07:18:59.893Z,21.94
2023-06-10T07:19:59.872Z,21.95
2023-06-10T07:20:59.845Z,21.98
2023-06-10T07:21:59.857Z,22.02
2023-06-10T07:22:59.845Z,22.07
2023-06-10T07:23:59.849Z,22.09
2023-06-10T07:24:59.812Z,22.12
2023-06-10T07:25:59.805Z,22.16
2023-06-10T07:26:59.811Z,22.19
2023-06-10T07:27:59.773Z,22.23
2023-06-10T07:28:59.760Z,22.27
2023-06-10T07:29:59.775Z,22.31
2023-06-10T07:30:59.785Z,22.34
2023-06-10T07:31:59.733Z,22.37
2023-06-10T07:32:59.754Z,22.39
2023-06-10T07:33:59.705Z,22.44
2023-06-10T07:34:59.683Z,22.46
2023-06-10T07:35:59.720Z,22.53
2023-06-10T07:36:59.667Z,22.54
2023-06-10T07:37:59.682Z,22.59
2023-06-10T07:38:59.652Z,22.62
2023-06-10T07:39:59.658Z,22.64
2023-06-10T07:40:59.676Z,22.68
2023-06-10T07:41:59.610Z,22.71
2023-06-10T07:43:02.364Z,22.72
2023-06-10T07:43:59.595Z,22.74
2023-06-10T07:44:59.590Z,22.78
2023-06-10T07:45:59.609Z,22.82
2023-06-10T07:46:59.609Z,22.84
2023-06-10T07:47:59.629Z,22.90
2023-06-10T07:48:59.532Z,22.94
2023-06-10T07:49:59.563Z,23.01
2023-06-10T07:50:59.851Z,23.02
2023-06-10T07:51:59.514Z,23.07
2023-06-10T07:52:59.497Z,23.09
2023-06-10T07:53:59.482Z,23.14
2023-06-10T07:54:59.460Z,23.15
2023-06-10T07:55:59.507Z,23.19
2023-06-10T07:56:59.443Z,23.20
2023-06-10T07:57:59.467Z,23.26
2023-06-10T07:58:59.420Z,23.29
2023-06-10T07:59:59.413Z,23.32
2023-06-10T08:00:59.436Z,23.38
2023-06-10T08:01:59.398Z,23.40
2023-06-10T08:02:59.417Z,23.42
2023-06-10T08:03:59.558Z,23.46
2023-06-10T08:04:59.372Z,23.49
2023-06-10T08:05:59.389Z,23.52
2023-06-10T08:06:59.328Z,23.55
2023-06-10T08:08:02.014Z,23.58
2023-06-10T08:08:59.323Z,23.62
2023-06-10T08:09:59.304Z,23.62
2023-06-10T08:10:59.297Z,23.65
2023-06-10T08:11:59.304Z,23.67
2023-06-10T08:12:59.253Z,23.71
2023-06-10T08:13:59.258Z,23.76
2023-06-10T08:14:59.244Z,23.79
2023-06-10T08:15:59.229Z,23.83
2023-06-10T08:16:59.302Z,23.86
2023-06-10T08:17:59.232Z,23.90
2023-06-10T08:18:59.218Z,23.95
2023-06-10T08:19:59.186Z,23.98
2023-06-10T08:20:59.170Z,24.01
2023-06-10T08:21:59.189Z,24.02
2023-06-10T08:22:59.163Z,24.07
2023-06-10T08:23:59.214Z,24.10
2023-06-10T08:24:59.112Z,24.13
2023-06-10T08:25:59.111Z,24.17
2023-06-10T08:26:59.099Z,24.19
2023-06-10T08:27:59.114Z,24.22
2023-06-10T08:28:59.118Z,24.26
2023-06-10T08:29:59.062Z,24.29
2023-06-10T08:30:59.052Z,24.32
2023-06-10T08:31:59.054Z,24.37
2023-06-10T08:32:59.066Z,24.42
2023-06-10T08:33:59.048Z,24.44
2023-06-10T08:34:58.994Z,24.47
2023-06-10T08:35:58.992Z,24.52
2023-06-10T08:36:58.984Z,24.56
2023-06-10T08:37:59.009Z,24.59
2023-06-10T08:38:58.946Z,24.60
2023-06-10T08:39:58.943Z,24.64
2023-06-10T08:40:58.929Z,24.69
2023-06-10T08:41:58.936Z,24.75
2023-06-10T08:42:58.928Z,24.80
2023-06-10T08:43:58.918Z,24.83
2023-06-10T08:45:00.340Z,24.90
2023-06-10T08:45:58.886Z,24.92
2023-06-10T08:46:58.859Z,24.95
2023-06-10T08:47:58.973Z,25.00
2023-06-10T08:48:58.937Z,25.00
2023-06-10T08:49:58.828Z,25.01
2023-06-10T08:50:58.817Z,25.02
2023-06-10T08:51:58.833Z,25.06
2023-06-10T08:52:58.797Z,25.10
2023-06-10T08:53:58.819Z,25.15
2023-06-10T08:54:58.770Z,25.20
2023-06-10T08:55:58.790Z,25.24
2023-06-10T08:56:58.747Z,25.30
2023-06-10T08:57:58.770Z,25.34
2023-06-10T08:58:58.749Z,25.34
2023-06-10T08:59:58.738Z,25.38
2023-06-10T09:00:58.708Z,25.44
2023-06-10T09:01:58.772Z,25.46
2023-06-10T09:03:00.223Z,25.49
2023-06-10T09:03:58.699Z,25.47
2023-06-10T09:04:58.657Z,25.52
2023-06-10T09:05:58.669Z,25.56
2023-06-10T09:06:58.633Z,25.59
2023-06-10T09:07:58.627Z,25.65
2023-06-10T09:09:00.927Z,25.67
2023-06-10T09:09:58.605Z,25.71
2023-06-10T09:10:58.598Z,25.77
2023-06-10T09:11:58.578Z,25.82
2023-06-10T09:12:58.572Z,25.86
2023-06-10T09:13:58.572Z,25.89
2023-06-10T09:14:59.007Z,25.91
2023-06-10T09:15:58.553Z,25.93
2023-06-10T09:16:58.554Z,25.98
2023-06-10T09:17:58.576Z,26.02
2023-06-10T09:18:58.507Z,26.04
2023-06-10T09:19:58.487Z,26.08
2023-06-10T09:20:58.468Z,26.12
2023-06-10T09:21:58.483Z,26.17
2023-06-10T09:22:58.496Z,26.20
2023-06-10T09:23:58.531Z,26.25
2023-06-10T09:24:58.425Z,26.28
2023-06-10T09:25:58.443Z,26.31
2023-06-10T09:26:58.401Z,26.36
2023-06-10T09:27:58.436Z,26.39
2023-06-10T09:28:58.380Z,26.44
2023-06-10T09:29:58.392Z,26.46
2023-06-10T09:30:58.375Z,26.49
2023-06-10T09:31:58.444Z,26.52
2023-06-10T09:32:58.547Z,26.57
2023-06-10T09:33:58.330Z,26.59
2023-06-10T09:34:58.328Z,26.62
2023-06-10T09:35:58.327Z,26.64
2023-06-10T09:36:58.323Z,26.68
2023-06-10T09:37:58.329Z,26.73
2023-06-10T09:38:58.264Z,26.80
2023-06-10T09:39:58.261Z,26.81
2023-06-10T09:40:58.259Z,26.86
2023-06-10T09:41:58.328Z,26.86
2023-06-10T09:42:58.228Z,26.86
2023-06-10T09:43:58.244Z,26.89
2023-06-10T09:44:58.201Z,26.91
2023-06-10T09:45:58.361Z,26.94
2023-06-10T09:46:58.170Z,26.95
2023-06-10T09:47:58.185Z,26.99
2023-06-10T09:48:58.172Z,26.98
2023-06-10T09:49:58.172Z,27.04
2023-06-10T09:50:58.284Z,27.09
2023-06-10T09:51:58.177Z,27.09
2023-06-10T09:52:58.119Z,27.13
2023-06-10T09:53:58.237Z,27.14
2023-06-10T09:54:58.080Z,27.11
2023-06-10T09:55:58.075Z,27.11
2023-06-10T09:56:58.060Z,27.06
2023-06-10T09:57:58.112Z,27.05
2023-06-10T09:58:58.034Z,27.10
2023-06-10T09:59:58.035Z,27.11
2023-06-10T10:00:58.082Z,27.10
2023-06-10T10:01:58.017Z,27.11
2023-06-10T10:02:58.031Z,27.17
2023-06-10T10:03:58.024Z,27.20
2023-06-10T10:04:58.058Z,27.28
2023-06-10T10:05:58.089Z,27.33
2023-06-10T10:06:57.948Z,27.36
2023-06-10T10:07:57.986Z,27.39
2023-06-10T10:08:58.019Z,27.43
2023-06-10T10:09:57.916Z,27.47
2023-06-10T10:10:57.915Z,27.50
2023-06-10T10:11:57.926Z,27.51
2023-06-10T10:12:57.966Z,27.51
2023-06-10T10:13:57.864Z,27.50
2023-06-10T10:14:57.860Z,27.51
2023-06-10T10:15:57.841Z,27.54
2023-06-10T10:16:57.924Z,27.59
2023-06-10T10:17:57.881Z,27.57
2023-06-10T10:18:57.819Z,27.59
2023-06-10T10:19:57.806Z,27.61
2023-06-10T10:20:57.815Z,27.64
2023-06-10T10:21:57.803Z,27.67
2023-06-10T10:22:57.780Z,27.67
2023-06-10T10:23:57.785Z,27.70
2023-06-10T10:24:57.761Z,27.73
2023-06-10T10:25:57.755Z,27.70
2023-06-10T10:26:57.737Z,27.74
2023-06-10T10:27:57.800Z,27.76
2023-06-10T10:28:57.732Z,27.77
2023-06-10T10:29:57.753Z,27.82
2023-06-10T10:30:57.687Z,27.84
2023-06-10T10:31:57.671Z,27.86
2023-06-10T10:32:57.789Z,27.86
2023-06-10T10:33:58.056Z,27.91
2023-06-10T10:34:57.633Z,27.95
2023-06-10T10:35:57.622Z,27.96
2023-06-10T10:36:57.616Z,28.03
2023-06-10T10:37:57.607Z,28.07
2023-06-10T10:38:57.583Z,28.07
2023-06-10T10:39:57.561Z,28.11
2023-06-10T10:40:57.562Z,28.16
2023-06-10T10:41:57.592Z,28.21
2023-06-10T10:42:57.580Z,28.23
2023-06-10T10:43:57.537Z,28.31
2023-06-10T10:44:57.533Z,28.36
2023-06-10T10:45:57.499Z,28.31
2023-06-10T10:46:57.564Z,28.31
2023-06-10T10:47:57.550Z,28.31
2023-06-10T10:48:57.488Z,28.33
2023-06-10T10:49:57.594Z,28.36
2023-06-10T10:50:57.456Z,28.40
2023-06-10T10:51:57.431Z,28.41
2023-06-10T10:52:57.582Z,28.43
2023-06-10T10:53:57.445Z,28.44
2023-06-10T10:54:57.439Z,28.46
2023-06-10T10:55:57.388Z,28.44
2023-06-10T10:56:57.402Z,28.41
2023-06-10T10:57:57.395Z,28.43
2023-06-10T10:58:57.376Z,28.44
2023-06-10T10:59:57.398Z,28.47
2023-06-10T11:00:57.459Z,28.54
2023-06-10T11:01:57.415Z,28.59
2023-06-10T11:02:58.813Z,28.65
2023-06-10T11:03:57.474Z,28.72
2023-06-10T11:04:57.378Z,28.77
2023-06-10T11:05:57.270Z,28.78
2023-06-10T11:06:57.270Z,28.84
2023-06-10T11:07:57.353Z,28.84
2023-06-10T11:08:59.515Z,28.87
2023-06-10T11:09:58.231Z,28.88
2023-06-10T11:10:57.225Z,28.91
2023-06-10T11:11:57.204Z,28.96
2023-06-10T11:12:57.210Z,28.97
2023-06-10T11:13:57.287Z,29.01
2023-06-10T11:14:57.193Z,29.04
2023-06-10T11:15:57.180Z,29.08
2023-06-10T11:16:57.267Z,29.11
2023-06-10T11:17:57.163Z,29.15
2023-06-10T11:18:57.136Z,29.15
2023-06-10T11:19:57.146Z,29.15
2023-06-10T11:20:57.166Z,29.18
2023-06-10T11:21:57.170Z,29.20
2023-06-10T11:22:57.132Z,29.20
2023-06-10T11:23:57.132Z,29.25
2023-06-10T11:24:57.069Z,29.29
2023-06-10T11:25:57.063Z,29.29
2023-06-10T11:26:57.055Z,29.31
2023-06-10T11:27:57.088Z,29.34
2023-06-10T11:28:57.074Z,29.37
2023-06-10T11:29:57.006Z,29.43
2023-06-10T11:30:57.028Z,29.49
2023-06-10T11:31:57.018Z,29.52
2023-06-10T11:32:59.874Z,29.52
2023-06-10T11:33:56.960Z,29.55
2023-06-10T11:35:04.202Z,29.60
2023-06-10T11:35:56.937Z,29.59
2023-06-10T11:36:56.989Z,29.62
2023-06-10T11:37:56.928Z,29.66
2023-06-10T11:38:56.915Z,29.75
2023-06-10T11:39:56.905Z,29.75
2023-06-10T11:40:56.929Z,29.78
2023-06-10T11:41:56.934Z,29.81
2023-06-10T11:42:56.868Z,29.81
2023-06-10T11:43:56.868Z,29.84
2023-06-10T11:44:56.842Z,29.89
2023-06-10T11:45:56.847Z,29.92
2023-06-10T11:46:56.871Z,29.96
2023-06-10T11:47:56.848Z,30.00
2023-06-10T11:48:56.815Z,30.00
2023-06-10T11:49:56.801Z,30.02
2023-06-10T11:50:56.814Z,30.07
2023-06-10T11:51:56.757Z,30.11
2023-06-10T11:52:56.757Z,30.12
2023-06-10T11:53:56.759Z,30.14
2023-06-10T11:54:56.751Z,30.14
2023-06-10T11:55:56.712Z,30.07
2023-06-10T11:56:56.739Z,29.97
2023-06-10T11:57:56.708Z,29.89
2023-06-10T11:58:56.714Z,29.84
2023-06-10T11:59:56.683Z,29.79
2023-06-10T12:00:56.698Z,29.78
2023-06-10T12:01:56.653Z,29.77
2023-06-10T12:02:56.723Z,29.78
2023-06-10T12:03:56.635Z,29.82
2023-06-10T12:04:56.705Z,29.86
2023-06-10T12:05:56.617Z,29.89
2023-06-10T12:06:56.607Z,29.93
2023-06-10T12:07:56.623Z,29.97
2023-06-10T12:09:04.670Z,29.96
2023-06-10T12:09:57.599Z,29.97
2023-06-10T12:10:56.569Z,30.03
2023-06-10T12:11:56.536Z,30.09
2023-06-10T12:12:56.539Z,30.14
2023-06-10T12:13:56.546Z,30.21
2023-06-10T12:14:56.994Z,30.21
2023-06-10T12:15:56.526Z,30.24
2023-06-10T12:16:56.489Z,30.24
2023-06-10T12:17:56.525Z,30.27
2023-06-10T12:18:56.497Z,30.30
2023-06-10T12:19:56.445Z,30.27
2023-06-10T12:20:56.448Z,30.24
2023-06-10T12:21:56.435Z,30.27
2023-06-10T12:22:56.471Z,30.31
2023-06-10T12:23:56.472Z,30.30
2023-06-10T12:24:56.400Z,30.29
2023-06-10T12:25:56.384Z,30.29
2023-06-10T12:26:56.379Z,30.31
2023-06-10T12:27:56.382Z,30.34
2023-06-10T12:28:56.421Z,30.38
2023-06-10T12:29:56.350Z,30.34
2023-06-10T12:30:56.330Z,30.36
2023-06-10T12:31:56.349Z,30.37
2023-06-10T12:32:56.391Z,30.36
2023-06-10T12:33:56.286Z,30.36
2023-06-10T12:34:56.324Z,30.38
2023-06-10T12:35:56.284Z,30.40
2023-06-10T12:36:56.260Z,30.45
2023-06-10T12:37:56.245Z,30.49
2023-06-10T12:38:56.233Z,30.46
2023-06-10T12:39:56.226Z,30.40
2023-06-10T12:40:56.241Z,30.46
2023-06-10T12:41:56.200Z,30.52
2023-06-10T12:42:56.222Z,30.56
2023-06-10T12:43:56.174Z,30.59
2023-06-10T12:44:56.167Z,30.59
2023-06-10T12:45:56.169Z,30.64
2023-06-10T12:46:56.156Z,30.65
2023-06-10T12:47:56.155Z,30.67
2023-06-10T12:48:56.146Z,30.67
2023-06-10T12:49:56.104Z,30.69
2023-06-10T12:50:56.148Z,30.71
2023-06-10T12:51:56.101Z,30.72